Terminal Aerodrome Forecast
Issued by NWS

Home | Current Version | Previous Version | Text Only | Print | Product List | Glossary On
Versions: 1 2 3 4 5 6 7 8 9 10 11 12 13 14 15 16 17 18 19 20 21 22
000
FTUS43 KEAX 252300
TAFSTJ
TAF
KSTJ 252339Z 2600/2624 18013G22KT P6SM VCTS SCT030CB BKN050
     FM260100 19008KT P6SM -TSRA BKN030CB
     FM260500 19008KT P6SM VCSH BKN050
     FM261200 19008KT P6SM BKN100=

USA.gov is the U.S. government's official web portal to all federal, state and local government web resources and services.